TimeHST,TemperatureF,Dew PointF,Humidity,Sea Level PressureIn,VisibilityMPH,Wind Direction,Wind SpeedMPH,Gust SpeedMPH,PrecipitationIn,Events,Conditions,WindDirDegrees,DateUTC
12:53 AM,70.0,62.1,76,30.10,10.0,NE,8.1,-,N/A,,Scattered Clouds,50,2013-01-02 10:53:00
1:53 AM,70.0,63.0,78,30.08,10.0,Variable,4.6,-,N/A,,Mostly Cloudy,0,2013-01-02 11:53:00
2:45 AM,71.6,62.6,73,30.06,10.0,Variable,3.5,-,N/A,,Mostly Cloudy,0,2013-01-02 12:45:00
2:53 AM,71.1,63.0,75,30.07,10.0,Variable,3.5,-,N/A,,Mostly Cloudy,0,2013-01-02 12:53:00
3:50 AM,69.8,64.4,83,30.04,10.0,NE,4.6,-,N/A,,Mostly Cloudy,50,2013-01-02 13:50:00
3:53 AM,70.0,64.0,81,30.06,10.0,Variable,3.5,-,N/A,,Mostly Cloudy,0,2013-01-02 13:53:00
4:01 AM,69.8,64.4,83,30.04,10.0,Variable,4.6,-,N/A,,Mostly Cloudy,0,2013-01-02 14:01:00
4:53 AM,71.1,64.0,78,30.06,10.0,Variable,4.6,-,N/A,,Mostly Cloudy,0,2013-01-02 14:53:00
5:53 AM,71.1,64.0,78,30.06,10.0,Variable,4.6,-,N/A,,Mostly Cloudy,0,2013-01-02 15:53:00
6:53 AM,71.1,63.0,75,30.07,10.0,Variable,4.6,-,N/A,,Mostly Cloudy,0,2013-01-02 16:53:00
7:53 AM,72.0,64.0,76,30.08,10.0,East,3.5,-,N/A,,Overcast,80,2013-01-02 17:53:00
8:09 AM,71.6,64.4,78,30.07,10.0,Calm,Calm,-,N/A,,Mostly Cloudy,0,2013-01-02 18:09:00
8:39 AM,73.4,64.4,73,30.07,10.0,Variable,4.6,-,N/A,,Mostly Cloudy,0,2013-01-02 18:39:00
8:53 AM,73.9,64.9,73,30.10,10.0,Variable,4.6,-,N/A,,Overcast,0,2013-01-02 18:53:00
9:17 AM,73.4,64.4,73,30.09,10.0,Variable,4.6,-,N/A,,Mostly Cloudy,0,2013-01-02 19:17:00
9:30 AM,73.4,64.4,73,30.09,10.0,Variable,3.5,-,N/A,,Mostly Cloudy,0,2013-01-02 19:30:00
9:37 AM,73.4,64.4,73,30.09,10.0,Variable,5.8,-,N/A,,Mostly Cloudy,0,2013-01-02 19:37:00
9:51 AM,75.2,64.4,69,30.09,10.0,ENE,6.9,-,N/A,,Mostly Cloudy,60,2013-01-02 19:51:00
9:53 AM,75.0,64.9,71,30.11,10.0,Variable,3.5,-,N/A,,Mostly Cloudy,0,2013-01-02 19:53:00
10:07 AM,75.2,64.4,69,30.08,10.0,Variable,4.6,-,N/A,,Mostly Cloudy,0,2013-01-02 20:07:00
10:41 AM,75.2,64.4,69,30.09,10.0,Variable,5.8,-,N/A,,Overcast,0,2013-01-02 20:41:00
10:53 AM,75.9,64.9,69,30.10,10.0,Variable,6.9,-,N/A,,Mostly Cloudy,0,2013-01-02 20:53:00
11:53 AM,77.0,64.9,66,30.08,10.0,NE,8.1,-,N/A,,Mostly Cloudy,50,2013-01-02 21:53:00
12:53 PM,77.0,64.9,66,30.06,10.0,ENE,8.1,-,N/A,,Overcast,70,2013-01-02 22:53:00
1:53 PM,78.1,64.9,64,30.02,10.0,ENE,9.2,-,N/A,,Mostly Cloudy,60,2013-01-02 23:53:00
2:53 PM,77.0,66.0,69,30.01,10.0,Variable,4.6,-,N/A,,Mostly Cloudy,0,2013-01-03 00:53:00
3:05 PM,75.2,66.2,73,29.99,9.0,Variable,5.8,18.4,N/A,,Mostly Cloudy,0,2013-01-03 01:05:00
3:38 PM,75.2,64.4,69,29.99,10.0,ENE,8.1,-,N/A,,Mostly Cloudy,70,2013-01-03 01:38:00
3:53 PM,77.0,64.9,66,30.01,10.0,ENE,11.5,20.7,N/A,,Overcast,70,2013-01-03 01:53:00
4:22 PM,73.4,66.2,78,29.99,3.0,ENE,6.9,-,0.00,Rain,Light Rain,70,2013-01-03 02:22:00
4:37 PM,73.4,66.2,78,29.99,10.0,NE,8.1,-,0.00,,Scattered Clouds,50,2013-01-03 02:37:00
4:53 PM,75.0,66.0,73,30.02,10.0,Variable,4.6,-,0.00,,Scattered Clouds,0,2013-01-03 02:53:00
5:53 PM,73.0,66.0,79,30.03,10.0,ENE,5.8,-,0.00,,Mostly Cloudy,60,2013-01-03 03:53:00
6:53 PM,71.1,66.0,84,30.04,10.0,Variable,4.6,-,N/A,,Mostly Cloudy,0,2013-01-03 04:53:00
7:53 PM,70.0,66.0,87,30.06,10.0,Variable,3.5,-,N/A,,Partly Cloudy,0,2013-01-03 05:53:00
8:50 PM,71.6,66.2,83,30.06,10.0,Calm,Calm,-,N/A,,Mostly Cloudy,0,2013-01-03 06:50:00
8:53 PM,70.0,66.0,87,30.08,10.0,Variable,4.6,-,N/A,,Mostly Cloudy,0,2013-01-03 06:53:00
9:03 PM,69.8,66.2,88,30.06,10.0,Calm,Calm,-,N/A,,Scattered Clouds,0,2013-01-03 07:03:00
9:53 PM,70.0,66.9,90,30.09,6.0,Variable,3.5,-,0.00,Rain,Light Rain,0,2013-01-03 07:53:00
10:53 PM,69.1,66.0,90,30.09,10.0,Calm,Calm,-,0.00,,Mostly Cloudy,0,2013-01-03 08:53:00
11:53 PM,70.0,66.0,87,30.08,10.0,Variable,3.5,-,0.00,,Mostly Cloudy,0,2013-01-03 09:53:00